CheckWX is a tool to help pilots better visualize weather data.  It is not intended as a substitute for an official pre-flight weather briefing.

00:39:36 UTC

MMTG TAF
Angel Albino Corzo International Airport
Tuxtla Gutiérrez, Mexico
TAF MMTG 261704Z 2618/2718 03010KT 6SM HZ SCT030 FM270300 06005KT 6SM HZ SCT020 TEMPO 2711/2715 1SM BR BKN005 OVC010 FM271800 03015KT P6SM SCT030

Mar-26@
18:00 UTC

Mar-26 @ 18:00 UTC

Mar-27@
03:00 UTC

Mar-27 @ 03:00 UTC

TAF MMTG 261704Z 2618/2718 03010KT 6SM HZ SCT030
Wind
  • 030° at 10 KTS
Conditions
Haze
Cloud Levels
  • Scattered at 3,000' AGL

Mar-27@
03:00 UTC

Mar-27 @ 03:00 UTC

Mar-27@
18:00 UTC

Mar-27 @ 18:00 UTC

FM270300 06005KT 6SM HZ SCT020

From

From Standard forecast or significant change

Wind
  • 060° at 5 KTS
Conditions
Haze
Cloud Levels
  • Scattered at 2,000' AGL

Mar-27@
11:00 UTC

Mar-27 @ 11:00 UTC

Mar-27@
15:00 UTC

Mar-27 @ 15:00 UTC

TEMPO 2711/2715 1SM BR BKN005 OVC010

Temporary

Temporary Changes expected for less than half the time period

Conditions
Mist
Cloud Levels
  • Broken at 500' AGL
  • Overcast at 1,000' AGL

Mar-27@
18:00 UTC

Mar-27 @ 18:00 UTC

Mar-27@
18:00 UTC

Mar-27 @ 18:00 UTC

FM271800 03015KT P6SM SCT030

From

From Standard forecast or significant change

Wind
  • 030° at 15 KTS
Cloud Levels
  • Scattered at 3,000' AGL